sensor_id;sensor_type;location;lat;lon;timestamp;P1;durP1;ratioP1;P2;durP2;ratioP2
12114;SDS011;6121;49.810;6.418;2023-09-08T00:01:49;25.45;;;9.85;;
12114;SDS011;6121;49.810;6.418;2023-09-08T00:04:22;26.09;;;10.52;;
12114;SDS011;6121;49.810;6.418;2023-09-08T00:06:49;24.67;;;9.43;;
12114;SDS011;6121;49.810;6.418;2023-09-08T00:09:14;23.98;;;9.30;;
12114;SDS011;6121;49.810;6.418;2023-09-08T00:11:40;24.08;;;9.30;;
12114;SDS011;6121;49.810;6.418;2023-09-08T00:14:06;27.60;;;10.68;;
12114;SDS011;6121;49.810;6.418;2023-09-08T00:16:32;20.53;;;8.20;;
12114;SDS011;6121;49.810;6.418;2023-09-08T00:18:58;19.37;;;7.73;;
12114;SDS011;6121;49.810;6.418;2023-09-08T00:21:27;22.87;;;8.77;;
12114;SDS011;6121;49.810;6.418;2023-09-08T00:23:53;16.97;;;6.93;;
12114;SDS011;6121;49.810;6.418;2023-09-08T00:26:19;23.17;;;8.98;;
12114;SDS011;6121;49.810;6.418;2023-09-08T00:28:47;23.33;;;8.90;;
12114;SDS011;6121;49.810;6.418;2023-09-08T00:31:13;25.23;;;9.50;;
12114;SDS011;6121;49.810;6.418;2023-09-08T00:33:39;24.60;;;9.45;;
12114;SDS011;6121;49.810;6.418;2023-09-08T00:36:06;27.48;;;10.27;;
12114;SDS011;6121;49.810;6.418;2023-09-08T00:38:32;24.20;;;9.20;;
12114;SDS011;6121;49.810;6.418;2023-09-08T00:40:57;22.88;;;8.75;;
12114;SDS011;6121;49.810;6.418;2023-09-08T00:43:26;24.05;;;9.38;;
12114;SDS011;6121;49.810;6.418;2023-09-08T00:45:52;32.15;;;12.30;;
12114;SDS011;6121;49.810;6.418;2023-09-08T00:48:20;22.33;;;8.68;;
12114;SDS011;6121;49.810;6.418;2023-09-08T00:50:46;22.80;;;8.73;;
12114;SDS011;6121;49.810;6.418;2023-09-08T00:53:13;24.80;;;9.43;;
12114;SDS011;6121;49.810;6.418;2023-09-08T00:55:39;24.42;;;9.35;;
12114;SDS011;6121;49.810;6.418;2023-09-08T00:58:05;30.63;;;11.87;;
12114;SDS011;6121;49.810;6.418;2023-09-08T01:00:31;27.20;;;10.00;;
12114;SDS011;6121;49.810;6.418;2023-09-08T01:02:58;23.45;;;8.85;;
12114;SDS011;6121;49.810;6.418;2023-09-08T01:05:24;25.83;;;9.88;;
12114;SDS011;6121;49.810;6.418;2023-09-08T01:07:50;26.20;;;10.07;;
12114;SDS011;6121;49.810;6.418;2023-09-08T01:10:18;21.45;;;8.10;;
12114;SDS011;6121;49.810;6.418;2023-09-08T01:12:44;28.20;;;10.45;;
12114;SDS011;6121;49.810;6.418;2023-09-08T01:15:10;26.95;;;9.90;;
12114;SDS011;6121;49.810;6.418;2023-09-08T01:17:35;22.77;;;9.05;;
12114;SDS011;6121;49.810;6.418;2023-09-08T01:20:04;18.77;;;7.38;;
12114;SDS011;6121;49.810;6.418;2023-09-08T01:23:17;24.25;;;9.50;;
12114;SDS011;6121;49.810;6.418;2023-09-08T01:25:49;24.20;;;9.32;;
12114;SDS011;6121;49.810;6.418;2023-09-08T01:28:20;22.23;;;8.60;;
12114;SDS011;6121;49.810;6.418;2023-09-08T01:30:47;23.92;;;9.27;;
12114;SDS011;6121;49.810;6.418;2023-09-08T01:33:13;27.58;;;10.43;;
12114;SDS011;6121;49.810;6.418;2023-09-08T01:35:40;25.08;;;9.48;;
12114;SDS011;6121;49.810;6.418;2023-09-08T01:38:06;23.45;;;8.82;;
12114;SDS011;6121;49.810;6.418;2023-09-08T01:40:32;25.20;;;9.55;;
12114;SDS011;6121;49.810;6.418;2023-09-08T01:42:58;24.87;;;9.53;;
12114;SDS011;6121;49.810;6.418;2023-09-08T01:45:23;24.10;;;8.90;;
12114;SDS011;6121;49.810;6.418;2023-09-08T01:47:49;21.70;;;8.30;;
12114;SDS011;6121;49.810;6.418;2023-09-08T01:50:15;21.33;;;8.23;;
12114;SDS011;6121;49.810;6.418;2023-09-08T01:52:46;22.77;;;8.75;;
12114;SDS011;6121;49.810;6.418;2023-09-08T01:55:12;28.58;;;10.65;;
12114;SDS011;6121;49.810;6.418;2023-09-08T01:57:38;25.83;;;9.75;;
12114;SDS011;6121;49.810;6.418;2023-09-08T02:00:04;21.17;;;8.23;;
12114;SDS011;6121;49.810;6.418;2023-09-08T02:02:38;25.77;;;9.80;;
12114;SDS011;6121;49.810;6.418;2023-09-08T02:05:04;22.95;;;8.88;;
12114;SDS011;6121;49.810;6.418;2023-09-08T02:07:30;23.70;;;8.93;;
12114;SDS011;6121;49.810;6.418;2023-09-08T02:09:56;25.00;;;9.52;;
12114;SDS011;6121;49.810;6.418;2023-09-08T02:12:22;21.50;;;8.23;;
12114;SDS011;6121;49.810;6.418;2023-09-08T02:14:48;22.05;;;8.32;;
12114;SDS011;6121;49.810;6.418;2023-09-08T02:17:14;32.70;;;12.37;;
12114;SDS011;6121;49.810;6.418;2023-09-08T02:19:39;28.20;;;10.50;;
12114;SDS011;6121;49.810;6.418;2023-09-08T02:22:05;25.07;;;9.20;;
12114;SDS011;6121;49.810;6.418;2023-09-08T02:24:31;24.63;;;9.25;;
12114;SDS011;6121;49.810;6.418;2023-09-08T02:26:57;23.13;;;8.55;;
12114;SDS011;6121;49.810;6.418;2023-09-08T02:29:23;26.42;;;9.80;;
12114;SDS011;6121;49.810;6.418;2023-09-08T02:31:49;24.00;;;9.13;;
12114;SDS011;6121;49.810;6.418;2023-09-08T02:34:15;21.30;;;8.32;;
12114;SDS011;6121;49.810;6.418;2023-09-08T02:36:41;21.55;;;8.38;;
12114;SDS011;6121;49.810;6.418;2023-09-08T02:39:07;29.42;;;11.25;;
12114;SDS011;6121;49.810;6.418;2023-09-08T02:41:33;23.73;;;9.00;;
12114;SDS011;6121;49.810;6.418;2023-09-08T02:44:00;23.70;;;8.68;;
12114;SDS011;6121;49.810;6.418;2023-09-08T02:46:25;23.80;;;9.25;;
12114;SDS011;6121;49.810;6.418;2023-09-08T02:48:53;22.85;;;8.75;;
12114;SDS011;6121;49.810;6.418;2023-09-08T02:51:18;23.98;;;8.95;;
12114;SDS011;6121;49.810;6.418;2023-09-08T02:53:44;22.08;;;8.48;;
12114;SDS011;6121;49.810;6.418;2023-09-08T02:56:10;18.80;;;7.35;;
12114;SDS011;6121;49.810;6.418;2023-09-08T02:58:36;26.13;;;10.02;;
12114;SDS011;6121;49.810;6.418;2023-09-08T03:01:12;31.02;;;12.13;;
12114;SDS011;6121;49.810;6.418;2023-09-08T03:03:42;26.65;;;10.15;;
12114;SDS011;6121;49.810;6.418;2023-09-08T03:06:10;23.30;;;8.93;;
12114;SDS011;6121;49.810;6.418;2023-09-08T03:08:38;23.00;;;8.57;;
12114;SDS011;6121;49.810;6.418;2023-09-08T03:11:04;34.50;;;12.75;;
12114;SDS011;6121;49.810;6.418;2023-09-08T03:13:31;27.35;;;10.20;;
12114;SDS011;6121;49.810;6.418;2023-09-08T03:16:04;22.60;;;8.63;;
12114;SDS011;6121;49.810;6.418;2023-09-08T03:18:31;25.00;;;9.43;;
12114;SDS011;6121;49.810;6.418;2023-09-08T03:20:58;25.30;;;9.57;;
12114;SDS011;6121;49.810;6.418;2023-09-08T03:23:25;25.10;;;9.60;;
12114;SDS011;6121;49.810;6.418;2023-09-08T03:25:51;25.20;;;9.13;;
12114;SDS011;6121;49.810;6.418;2023-09-08T03:28:17;23.10;;;8.60;;
12114;SDS011;6121;49.810;6.418;2023-09-08T03:30:43;32.33;;;11.07;;
12114;SDS011;6121;49.810;6.418;2023-09-08T03:33:09;32.17;;;11.67;;
12114;SDS011;6121;49.810;6.418;2023-09-08T03:35:35;24.02;;;9.00;;
12114;SDS011;6121;49.810;6.418;2023-09-08T03:38:01;22.35;;;8.73;;
12114;SDS011;6121;49.810;6.418;2023-09-08T03:40:27;26.45;;;9.75;;
12114;SDS011;6121;49.810;6.418;2023-09-08T03:42:53;26.55;;;9.88;;
12114;SDS011;6121;49.810;6.418;2023-09-08T03:45:19;21.38;;;8.13;;
12114;SDS011;6121;49.810;6.418;2023-09-08T03:47:44;24.98;;;9.55;;
12114;SDS011;6121;49.810;6.418;2023-09-08T03:50:10;24.35;;;9.23;;
12114;SDS011;6121;49.810;6.418;2023-09-08T03:52:36;22.15;;;8.50;;
12114;SDS011;6121;49.810;6.418;2023-09-08T03:55:02;26.15;;;9.48;;
12114;SDS011;6121;49.810;6.418;2023-09-08T03:57:28;26.13;;;9.55;;
12114;SDS011;6121;49.810;6.418;2023-09-08T03:59:54;26.73;;;9.55;;
12114;SDS011;6121;49.810;6.418;2023-09-08T04:02:20;21.17;;;8.20;;
12114;SDS011;6121;49.810;6.418;2023-09-08T04:04:46;25.83;;;9.68;;
12114;SDS011;6121;49.810;6.418;2023-09-08T04:07:11;24.25;;;9.25;;
12114;SDS011;6121;49.810;6.418;2023-09-08T04:09:37;23.65;;;9.48;;
12114;SDS011;6121;49.810;6.418;2023-09-08T04:12:03;24.33;;;9.35;;
12114;SDS011;6121;49.810;6.418;2023-09-08T04:14:30;24.02;;;9.20;;
12114;SDS011;6121;49.810;6.418;2023-09-08T04:16:56;22.50;;;8.85;;
12114;SDS011;6121;49.810;6.418;2023-09-08T04:19:22;25.27;;;9.52;;
12114;SDS011;6121;49.810;6.418;2023-09-08T04:21:48;23.60;;;9.00;;
12114;SDS011;6121;49.810;6.418;2023-09-08T04:24:13;24.67;;;9.13;;
12114;SDS011;6121;49.810;6.418;2023-09-08T04:26:39;22.38;;;8.65;;
12114;SDS011;6121;49.810;6.418;2023-09-08T04:29:05;25.58;;;9.93;;
12114;SDS011;6121;49.810;6.418;2023-09-08T04:31:31;25.02;;;9.68;;
12114;SDS011;6121;49.810;6.418;2023-09-08T04:33:56;22.53;;;8.50;;
12114;SDS011;6121;49.810;6.418;2023-09-08T04:36:22;25.10;;;9.40;;
12114;SDS011;6121;49.810;6.418;2023-09-08T04:38:48;25.77;;;9.67;;
12114;SDS011;6121;49.810;6.418;2023-09-08T04:41:14;21.20;;;8.37;;
12114;SDS011;6121;49.810;6.418;2023-09-08T04:43:40;25.52;;;9.68;;
12114;SDS011;6121;49.810;6.418;2023-09-08T04:46:05;23.40;;;9.07;;
12114;SDS011;6121;49.810;6.418;2023-09-08T04:48:31;21.88;;;8.38;;
12114;SDS011;6121;49.810;6.418;2023-09-08T04:50:57;22.48;;;8.40;;
12114;SDS011;6121;49.810;6.418;2023-09-08T04:53:23;23.58;;;8.80;;
12114;SDS011;6121;49.810;6.418;2023-09-08T04:55:49;24.95;;;9.77;;
12114;SDS011;6121;49.810;6.418;2023-09-08T04:58:15;24.98;;;9.35;;
12114;SDS011;6121;49.810;6.418;2023-09-08T05:00:41;29.95;;;11.35;;
12114;SDS011;6121;49.810;6.418;2023-09-08T05:03:07;29.58;;;11.30;;
12114;SDS011;6121;49.810;6.418;2023-09-08T05:05:33;28.40;;;10.63;;
12114;SDS011;6121;49.810;6.418;2023-09-08T05:07:59;22.65;;;8.77;;
12114;SDS011;6121;49.810;6.418;2023-09-08T05:10:25;25.15;;;9.50;;
12114;SDS011;6121;49.810;6.418;2023-09-08T05:12:51;37.65;;;13.88;;
12114;SDS011;6121;49.810;6.418;2023-09-08T05:15:18;28.93;;;10.77;;
12114;SDS011;6121;49.810;6.418;2023-09-08T05:17:49;26.30;;;9.93;;
12114;SDS011;6121;49.810;6.418;2023-09-08T05:20:17;26.55;;;10.30;;
12114;SDS011;6121;49.810;6.418;2023-09-08T05:22:43;29.60;;;11.23;;
12114;SDS011;6121;49.810;6.418;2023-09-08T05:25:09;27.95;;;10.50;;
12114;SDS011;6121;49.810;6.418;2023-09-08T05:27:35;28.15;;;10.52;;
12114;SDS011;6121;49.810;6.418;2023-09-08T05:30:03;26.63;;;10.00;;
12114;SDS011;6121;49.810;6.418;2023-09-08T05:32:31;30.30;;;11.10;;
12114;SDS011;6121;49.810;6.418;2023-09-08T05:34:57;29.73;;;11.02;;
12114;SDS011;6121;49.810;6.418;2023-09-08T05:37:23;24.85;;;9.18;;
12114;SDS011;6121;49.810;6.418;2023-09-08T05:39:49;28.55;;;10.57;;
12114;SDS011;6121;49.810;6.418;2023-09-08T05:42:14;27.75;;;10.52;;
12114;SDS011;6121;49.810;6.418;2023-09-08T05:44:40;29.63;;;10.85;;
12114;SDS011;6121;49.810;6.418;2023-09-08T05:47:06;31.77;;;11.65;;
12114;SDS011;6121;49.810;6.418;2023-09-08T05:49:32;34.50;;;12.48;;
12114;SDS011;6121;49.810;6.418;2023-09-08T05:51:58;32.00;;;11.93;;
12114;SDS011;6121;49.810;6.418;2023-09-08T05:54:24;34.03;;;12.63;;
12114;SDS011;6121;49.810;6.418;2023-09-08T05:56:50;32.87;;;11.77;;
12114;SDS011;6121;49.810;6.418;2023-09-08T05:59:16;38.07;;;14.03;;
12114;SDS011;6121;49.810;6.418;2023-09-08T06:01:42;34.10;;;12.38;;
12114;SDS011;6121;49.810;6.418;2023-09-08T06:04:09;29.17;;;10.68;;
12114;SDS011;6121;49.810;6.418;2023-09-08T06:06:36;30.60;;;11.27;;
12114;SDS011;6121;49.810;6.418;2023-09-08T06:09:02;34.83;;;12.53;;
12114;SDS011;6121;49.810;6.418;2023-09-08T06:11:28;25.85;;;9.73;;
12114;SDS011;6121;49.810;6.418;2023-09-08T06:13:54;30.88;;;11.38;;
12114;SDS011;6121;49.810;6.418;2023-09-08T06:16:25;30.35;;;11.07;;
12114;SDS011;6121;49.810;6.418;2023-09-08T06:18:51;32.60;;;11.73;;
12114;SDS011;6121;49.810;6.418;2023-09-08T06:21:19;33.28;;;12.40;;
12114;SDS011;6121;49.810;6.418;2023-09-08T06:23:45;34.58;;;12.95;;
12114;SDS011;6121;49.810;6.418;2023-09-08T06:26:12;35.80;;;13.53;;
12114;SDS011;6121;49.810;6.418;2023-09-08T06:28:38;32.78;;;12.15;;
12114;SDS011;6121;49.810;6.418;2023-09-08T06:31:07;29.70;;;11.30;;
12114;SDS011;6121;49.810;6.418;2023-09-08T06:33:32;34.38;;;12.75;;
12114;SDS011;6121;49.810;6.418;2023-09-08T06:35:58;34.47;;;12.52;;
12114;SDS011;6121;49.810;6.418;2023-09-08T06:38:24;25.42;;;9.63;;
12114;SDS011;6121;49.810;6.418;2023-09-08T06:40:50;29.02;;;11.00;;
12114;SDS011;6121;49.810;6.418;2023-09-08T06:43:18;35.97;;;13.15;;
12114;SDS011;6121;49.810;6.418;2023-09-08T06:45:50;32.08;;;11.75;;
12114;SDS011;6121;49.810;6.418;2023-09-08T06:48:16;31.30;;;11.60;;
12114;SDS011;6121;49.810;6.418;2023-09-08T06:50:42;34.90;;;13.10;;
12114;SDS011;6121;49.810;6.418;2023-09-08T06:53:08;36.50;;;13.10;;
12114;SDS011;6121;49.810;6.418;2023-09-08T06:55:36;35.33;;;12.95;;
12114;SDS011;6121;49.810;6.418;2023-09-08T06:58:01;31.08;;;11.90;;
12114;SDS011;6121;49.810;6.418;2023-09-08T07:00:27;30.42;;;11.52;;
12114;SDS011;6121;49.810;6.418;2023-09-08T07:02:53;30.75;;;11.75;;
12114;SDS011;6121;49.810;6.418;2023-09-08T07:05:19;30.00;;;11.30;;
12114;SDS011;6121;49.810;6.418;2023-09-08T07:07:45;35.60;;;13.45;;
12114;SDS011;6121;49.810;6.418;2023-09-08T07:10:11;31.98;;;11.75;;
12114;SDS011;6121;49.810;6.418;2023-09-08T07:12:38;33.88;;;12.88;;
12114;SDS011;6121;49.810;6.418;2023-09-08T07:15:03;36.17;;;13.65;;
12114;SDS011;6121;49.810;6.418;2023-09-08T07:17:30;28.30;;;10.90;;
12114;SDS011;6121;49.810;6.418;2023-09-08T07:19:55;32.05;;;11.98;;
12114;SDS011;6121;49.810;6.418;2023-09-08T07:22:21;27.45;;;10.52;;
12114;SDS011;6121;49.810;6.418;2023-09-08T07:24:47;30.37;;;11.43;;
12114;SDS011;6121;49.810;6.418;2023-09-08T07:27:15;29.08;;;11.25;;
12114;SDS011;6121;49.810;6.418;2023-09-08T07:29:41;36.17;;;13.85;;
12114;SDS011;6121;49.810;6.418;2023-09-08T07:32:07;30.03;;;11.60;;
12114;SDS011;6121;49.810;6.418;2023-09-08T07:34:33;26.95;;;10.52;;
12114;SDS011;6121;49.810;6.418;2023-09-08T07:37:00;31.37;;;12.17;;
12114;SDS011;6121;49.810;6.418;2023-09-08T07:39:26;33.10;;;12.90;;
12114;SDS011;6121;49.810;6.418;2023-09-08T07:41:52;35.13;;;13.87;;
12114;SDS011;6121;49.810;6.418;2023-09-08T07:44:19;26.25;;;10.60;;
12114;SDS011;6121;49.810;6.418;2023-09-08T07:46:45;26.13;;;10.55;;
12114;SDS011;6121;49.810;6.418;2023-09-08T07:49:14;27.73;;;11.38;;
12114;SDS011;6121;49.810;6.418;2023-09-08T07:51:40;26.52;;;10.57;;
12114;SDS011;6121;49.810;6.418;2023-09-08T07:54:06;37.30;;;14.90;;
12114;SDS011;6121;49.810;6.418;2023-09-08T07:56:32;26.90;;;10.90;;
12114;SDS011;6121;49.810;6.418;2023-09-08T07:58:58;29.42;;;11.82;;
12114;SDS011;6121;49.810;6.418;2023-09-08T08:01:23;27.97;;;11.30;;
12114;SDS011;6121;49.810;6.418;2023-09-08T08:03:49;26.42;;;11.20;;
12114;SDS011;6121;49.810;6.418;2023-09-08T08:06:15;23.13;;;9.45;;
12114;SDS011;6121;49.810;6.418;2023-09-08T08:08:41;26.27;;;10.90;;
12114;SDS011;6121;49.810;6.418;2023-09-08T08:11:10;26.88;;;11.18;;
12114;SDS011;6121;49.810;6.418;2023-09-08T08:13:37;27.67;;;11.65;;
12114;SDS011;6121;49.810;6.418;2023-09-08T08:16:03;29.80;;;12.83;;
12114;SDS011;6121;49.810;6.418;2023-09-08T08:18:29;29.75;;;12.65;;
12114;SDS011;6121;49.810;6.418;2023-09-08T08:20:55;26.83;;;11.60;;
12114;SDS011;6121;49.810;6.418;2023-09-08T08:23:20;35.05;;;14.80;;
12114;SDS011;6121;49.810;6.418;2023-09-08T08:25:46;29.43;;;12.97;;
12114;SDS011;6121;49.810;6.418;2023-09-08T08:28:14;32.97;;;14.05;;
12114;SDS011;6121;49.810;6.418;2023-09-08T08:30:40;27.83;;;12.10;;
12114;SDS011;6121;49.810;6.418;2023-09-08T08:33:06;33.00;;;14.33;;
12114;SDS011;6121;49.810;6.418;2023-09-08T08:35:31;30.30;;;13.23;;
12114;SDS011;6121;49.810;6.418;2023-09-08T08:37:58;29.47;;;12.67;;
12114;SDS011;6121;49.810;6.418;2023-09-08T08:40:25;31.40;;;13.85;;
12114;SDS011;6121;49.810;6.418;2023-09-08T08:42:55;31.20;;;13.68;;
12114;SDS011;6121;49.810;6.418;2023-09-08T08:45:23;29.40;;;13.05;;
12114;SDS011;6121;49.810;6.418;2023-09-08T08:47:53;26.38;;;11.43;;
12114;SDS011;6121;49.810;6.418;2023-09-08T08:50:20;39.47;;;17.88;;
12114;SDS011;6121;49.810;6.418;2023-09-08T08:52:46;24.67;;;11.07;;
12114;SDS011;6121;49.810;6.418;2023-09-08T08:55:12;29.55;;;13.13;;
12114;SDS011;6121;49.810;6.418;2023-09-08T08:57:40;24.38;;;11.05;;
12114;SDS011;6121;49.810;6.418;2023-09-08T09:00:10;28.52;;;12.68;;
12114;SDS011;6121;49.810;6.418;2023-09-08T09:02:41;23.80;;;10.80;;
12114;SDS011;6121;49.810;6.418;2023-09-08T09:05:12;26.67;;;11.75;;
12114;SDS011;6121;49.810;6.418;2023-09-08T09:07:39;25.05;;;11.20;;
12114;SDS011;6121;49.810;6.418;2023-09-08T09:10:06;23.05;;;10.95;;
12114;SDS011;6121;49.810;6.418;2023-09-08T09:12:33;26.25;;;11.43;;
12114;SDS011;6121;49.810;6.418;2023-09-08T09:14:59;25.33;;;11.93;;
12114;SDS011;6121;49.810;6.418;2023-09-08T09:17:25;24.55;;;11.63;;
12114;SDS011;6121;49.810;6.418;2023-09-08T09:19:58;21.48;;;10.43;;
12114;SDS011;6121;49.810;6.418;2023-09-08T09:22:43;21.63;;;10.40;;
12114;SDS011;6121;49.810;6.418;2023-09-08T09:25:09;23.00;;;11.25;;
12114;SDS011;6121;49.810;6.418;2023-09-08T09:28:04;29.30;;;12.70;;
12114;SDS011;6121;49.810;6.418;2023-09-08T09:30:46;26.02;;;11.20;;
12114;SDS011;6121;49.810;6.418;2023-09-08T09:33:14;30.23;;;12.35;;
12114;SDS011;6121;49.810;6.418;2023-09-08T09:35:40;36.70;;;15.73;;
12114;SDS011;6121;49.810;6.418;2023-09-08T09:38:07;28.52;;;12.30;;
12114;SDS011;6121;49.810;6.418;2023-09-08T09:40:34;27.30;;;11.40;;
12114;SDS011;6121;49.810;6.418;2023-09-08T09:42:59;25.17;;;11.10;;
12114;SDS011;6121;49.810;6.418;2023-09-08T09:45:25;28.93;;;12.87;;
12114;SDS011;6121;49.810;6.418;2023-09-08T09:47:52;23.27;;;10.73;;
12114;SDS011;6121;49.810;6.418;2023-09-08T09:50:30;31.40;;;13.98;;
12114;SDS011;6121;49.810;6.418;2023-09-08T09:52:58;28.48;;;12.18;;
12114;SDS011;6121;49.810;6.418;2023-09-08T09:55:26;28.10;;;12.48;;
12114;SDS011;6121;49.810;6.418;2023-09-08T09:57:55;22.17;;;10.20;;
12114;SDS011;6121;49.810;6.418;2023-09-08T10:00:24;31.27;;;13.90;;
12114;SDS011;6121;49.810;6.418;2023-09-08T10:02:51;30.58;;;13.20;;
12114;SDS011;6121;49.810;6.418;2023-09-08T10:05:18;23.58;;;10.43;;
12114;SDS011;6121;49.810;6.418;2023-09-08T10:07:45;14.90;;;6.80;;
12114;SDS011;6121;49.810;6.418;2023-09-08T10:10:18;31.13;;;13.23;;
12114;SDS011;6121;49.810;6.418;2023-09-08T10:12:46;23.08;;;10.13;;
12114;SDS011;6121;49.810;6.418;2023-09-08T10:15:18;36.95;;;15.82;;
12114;SDS011;6121;49.810;6.418;2023-09-08T10:17:46;28.07;;;12.10;;
12114;SDS011;6121;49.810;6.418;2023-09-08T10:20:17;30.92;;;12.85;;
12114;SDS011;6121;49.810;6.418;2023-09-08T10:22:46;26.73;;;11.67;;
12114;SDS011;6121;49.810;6.418;2023-09-08T10:25:24;26.65;;;11.75;;
12114;SDS011;6121;49.810;6.418;2023-09-08T10:27:52;27.13;;;11.90;;
12114;SDS011;6121;49.810;6.418;2023-09-08T10:30:19;30.52;;;13.27;;
12114;SDS011;6121;49.810;6.418;2023-09-08T10:32:47;25.60;;;11.68;;
12114;SDS011;6121;49.810;6.418;2023-09-08T10:35:15;40.60;;;14.63;;
12114;SDS011;6121;49.810;6.418;2023-09-08T10:37:43;35.75;;;13.13;;
12114;SDS011;6121;49.810;6.418;2023-09-08T10:40:30;42.33;;;15.33;;
12114;SDS011;6121;49.810;6.418;2023-09-08T10:43:08;36.40;;;12.88;;
12114;SDS011;6121;49.810;6.418;2023-09-08T10:45:34;52.17;;;18.00;;
12114;SDS011;6121;49.810;6.418;2023-09-08T10:48:00;41.35;;;14.50;;
12114;SDS011;6121;49.810;6.418;2023-09-08T10:50:30;44.63;;;15.48;;
12114;SDS011;6121;49.810;6.418;2023-09-08T10:53:17;41.25;;;14.30;;
12114;SDS011;6121;49.810;6.418;2023-09-08T10:55:44;39.60;;;13.70;;
12114;SDS011;6121;49.810;6.418;2023-09-08T10:58:17;41.15;;;14.38;;
12114;SDS011;6121;49.810;6.418;2023-09-08T11:00:45;39.50;;;13.73;;
12114;SDS011;6121;49.810;6.418;2023-09-08T11:03:13;44.08;;;14.82;;
12114;SDS011;6121;49.810;6.418;2023-09-08T11:05:41;39.38;;;13.20;;
12114;SDS011;6121;49.810;6.418;2023-09-08T11:08:08;40.80;;;13.97;;
12114;SDS011;6121;49.810;6.418;2023-09-08T11:10:33;46.20;;;15.57;;
12114;SDS011;6121;49.810;6.418;2023-09-08T11:13:00;35.13;;;12.35;;
12114;SDS011;6121;49.810;6.418;2023-09-08T11:15:28;40.00;;;14.13;;
12114;SDS011;6121;49.810;6.418;2023-09-08T11:17:54;53.75;;;18.92;;
12114;SDS011;6121;49.810;6.418;2023-09-08T11:20:26;40.83;;;14.30;;
12114;SDS011;6121;49.810;6.418;2023-09-08T11:22:53;33.20;;;11.70;;
12114;SDS011;6121;49.810;6.418;2023-09-08T11:25:19;45.00;;;15.40;;
12114;SDS011;6121;49.810;6.418;2023-09-08T11:27:45;36.95;;;13.35;;
12114;SDS011;6121;49.810;6.418;2023-09-08T11:30:11;49.73;;;17.40;;
12114;SDS011;6121;49.810;6.418;2023-09-08T11:32:38;32.67;;;11.20;;
12114;SDS011;6121;49.810;6.418;2023-09-08T11:35:04;41.38;;;14.18;;
12114;SDS011;6121;49.810;6.418;2023-09-08T11:37:40;40.60;;;14.00;;
12114;SDS011;6121;49.810;6.418;2023-09-08T11:40:07;36.85;;;12.63;;
12114;SDS011;6121;49.810;6.418;2023-09-08T11:42:40;33.25;;;11.43;;
12114;SDS011;6121;49.810;6.418;2023-09-08T11:45:15;36.47;;;12.43;;
12114;SDS011;6121;49.810;6.418;2023-09-08T11:47:48;25.85;;;9.10;;
12114;SDS011;6121;49.810;6.418;2023-09-08T11:50:14;22.03;;;7.77;;
12114;SDS011;6121;49.810;6.418;2023-09-08T11:52:46;37.22;;;13.57;;
12114;SDS011;6121;49.810;6.418;2023-09-08T11:55:12;37.20;;;13.38;;
12114;SDS011;6121;49.810;6.418;2023-09-08T11:57:42;45.13;;;16.45;;
12114;SDS011;6121;49.810;6.418;2023-09-08T12:00:10;43.37;;;16.00;;
12114;SDS011;6121;49.810;6.418;2023-09-08T12:02:41;40.53;;;14.70;;
12114;SDS011;6121;49.810;6.418;2023-09-08T12:05:26;38.97;;;13.83;;
12114;SDS011;6121;49.810;6.418;2023-09-08T12:07:54;32.63;;;11.95;;
12114;SDS011;6121;49.810;6.418;2023-09-08T12:10:21;41.33;;;14.18;;
12114;SDS011;6121;49.810;6.418;2023-09-08T12:12:48;39.83;;;13.98;;
12114;SDS011;6121;49.810;6.418;2023-09-08T12:18:04;43.53;;;15.55;;
12114;SDS011;6121;49.810;6.418;2023-09-08T12:20:35;44.50;;;16.10;;
12114;SDS011;6121;49.810;6.418;2023-09-08T12:23:02;33.13;;;11.85;;
12114;SDS011;6121;49.810;6.418;2023-09-08T12:25:30;44.05;;;15.88;;
12114;SDS011;6121;49.810;6.418;2023-09-08T12:27:57;38.42;;;13.90;;
12114;SDS011;6121;49.810;6.418;2023-09-08T12:30:23;42.03;;;15.40;;
12114;SDS011;6121;49.810;6.418;2023-09-08T12:32:55;34.13;;;12.33;;
12114;SDS011;6121;49.810;6.418;2023-09-08T12:35:25;44.65;;;15.80;;
12114;SDS011;6121;49.810;6.418;2023-09-08T12:37:53;35.15;;;12.90;;
12114;SDS011;6121;49.810;6.418;2023-09-08T12:40:22;40.28;;;14.93;;
12114;SDS011;6121;49.810;6.418;2023-09-08T12:42:47;38.13;;;13.88;;
12114;SDS011;6121;49.810;6.418;2023-09-08T12:45:13;40.95;;;14.73;;
12114;SDS011;6121;49.810;6.418;2023-09-08T12:47:39;39.22;;;14.32;;
12114;SDS011;6121;49.810;6.418;2023-09-08T12:50:05;49.80;;;17.92;;
12114;SDS011;6121;49.810;6.418;2023-09-08T12:52:32;38.53;;;13.95;;
12114;SDS011;6121;49.810;6.418;2023-09-08T12:54:58;39.25;;;13.85;;
12114;SDS011;6121;49.810;6.418;2023-09-08T12:57:24;35.92;;;13.30;;
12114;SDS011;6121;49.810;6.418;2023-09-08T12:59:49;36.35;;;13.02;;
12114;SDS011;6121;49.810;6.418;2023-09-08T13:02:17;46.95;;;17.08;;
12114;SDS011;6121;49.810;6.418;2023-09-08T13:04:42;48.83;;;17.25;;
12114;SDS011;6121;49.810;6.418;2023-09-08T13:07:14;35.05;;;12.55;;
12114;SDS011;6121;49.810;6.418;2023-09-08T13:09:41;41.83;;;14.70;;
12114;SDS011;6121;49.810;6.418;2023-09-08T13:12:06;34.70;;;12.80;;
12114;SDS011;6121;49.810;6.418;2023-09-08T13:14:34;37.88;;;13.63;;
12114;SDS011;6121;49.810;6.418;2023-09-08T13:17:00;34.23;;;12.10;;
12114;SDS011;6121;49.810;6.418;2023-09-08T13:19:26;37.15;;;13.63;;
12114;SDS011;6121;49.810;6.418;2023-09-08T13:21:52;29.08;;;10.75;;
12114;SDS011;6121;49.810;6.418;2023-09-08T13:24:18;34.50;;;12.47;;
12114;SDS011;6121;49.810;6.418;2023-09-08T13:26:46;30.67;;;11.23;;
12114;SDS011;6121;49.810;6.418;2023-09-08T13:29:11;29.80;;;11.07;;
12114;SDS011;6121;49.810;6.418;2023-09-08T13:31:37;33.55;;;12.27;;
12114;SDS011;6121;49.810;6.418;2023-09-08T13:34:03;22.55;;;8.43;;
12114;SDS011;6121;49.810;6.418;2023-09-08T13:36:29;38.28;;;14.02;;
12114;SDS011;6121;49.810;6.418;2023-09-08T13:38:54;32.40;;;11.80;;
12114;SDS011;6121;49.810;6.418;2023-09-08T13:41:20;28.58;;;10.38;;
12114;SDS011;6121;49.810;6.418;2023-09-08T13:43:46;33.27;;;11.80;;
12114;SDS011;6121;49.810;6.418;2023-09-08T13:46:12;31.00;;;11.33;;
12114;SDS011;6121;49.810;6.418;2023-09-08T13:48:37;35.20;;;12.63;;
12114;SDS011;6121;49.810;6.418;2023-09-08T13:51:03;31.65;;;11.27;;
12114;SDS011;6121;49.810;6.418;2023-09-08T13:53:29;38.90;;;13.65;;
12114;SDS011;6121;49.810;6.418;2023-09-08T13:56:01;30.92;;;11.27;;
12114;SDS011;6121;49.810;6.418;2023-09-08T13:58:30;33.30;;;11.93;;
12114;SDS011;6121;49.810;6.418;2023-09-08T14:00:55;37.83;;;13.50;;
12114;SDS011;6121;49.810;6.418;2023-09-08T14:03:21;31.60;;;11.53;;
12114;SDS011;6121;49.810;6.418;2023-09-08T14:05:47;32.40;;;11.75;;
12114;SDS011;6121;49.810;6.418;2023-09-08T14:08:13;34.00;;;12.30;;
12114;SDS011;6121;49.810;6.418;2023-09-08T14:10:38;29.85;;;10.95;;
12114;SDS011;6121;49.810;6.418;2023-09-08T14:13:04;29.75;;;10.68;;
12114;SDS011;6121;49.810;6.418;2023-09-08T14:15:30;37.07;;;13.33;;
12114;SDS011;6121;49.810;6.418;2023-09-08T14:17:56;23.47;;;8.70;;
12114;SDS011;6121;49.810;6.418;2023-09-08T14:20:22;30.33;;;10.90;;
12114;SDS011;6121;49.810;6.418;2023-09-08T14:22:47;30.17;;;10.95;;
12114;SDS011;6121;49.810;6.418;2023-09-08T14:25:13;30.57;;;11.00;;
12114;SDS011;6121;49.810;6.418;2023-09-08T14:27:39;34.57;;;12.20;;
12114;SDS011;6121;49.810;6.418;2023-09-08T14:30:05;28.08;;;10.27;;
12114;SDS011;6121;49.810;6.418;2023-09-08T14:32:31;50.30;;;17.67;;
12114;SDS011;6121;49.810;6.418;2023-09-08T14:34:57;35.55;;;12.43;;
12114;SDS011;6121;49.810;6.418;2023-09-08T14:37:23;32.38;;;11.80;;
12114;SDS011;6121;49.810;6.418;2023-09-08T14:39:48;28.40;;;10.40;;
12114;SDS011;6121;49.810;6.418;2023-09-08T14:42:15;32.60;;;11.67;;